sensor_id;sensor_type;location;lat;lon;timestamp;pressure;altitude;pressure_sealevel;temperature;humidity
39739;BME280;25422;48.286;8.484;2023-03-03T00:02:20;94142.69;;;-4.24;100.00
39739;BME280;25422;48.286;8.484;2023-03-03T00:04:45;94140.22;;;-4.25;100.00
39739;BME280;25422;48.286;8.484;2023-03-03T00:07:11;94138.16;;;-4.18;100.00
39739;BME280;25422;48.286;8.484;2023-03-03T00:09:36;94139.06;;;-4.19;100.00
39739;BME280;25422;48.286;8.484;2023-03-03T00:12:25;94145.84;;;-4.18;100.00
39739;BME280;25422;48.286;8.484;2023-03-03T00:14:51;94136.13;;;-4.12;100.00
39739;BME280;25422;48.286;8.484;2023-03-03T00:17:22;94135.81;;;-4.05;100.00
39739;BME280;25422;48.286;8.484;2023-03-03T00:19:49;94135.13;;;-4.09;100.00
39739;BME280;25422;48.286;8.484;2023-03-03T00:22:28;94137.28;;;-4.01;100.00
39739;BME280;25422;48.286;8.484;2023-03-03T00:24:56;94135.94;;;-4.09;100.00
39739;BME280;25422;48.286;8.484;2023-03-03T00:27:29;94136.78;;;-4.08;100.00
39739;BME280;25422;48.286;8.484;2023-03-03T00:29:57;94145.34;;;-4.09;100.00
39739;BME280;25422;48.286;8.484;2023-03-03T00:32:26;94139.75;;;-4.16;100.00
39739;BME280;25422;48.286;8.484;2023-03-03T00:35:01;94137.00;;;-4.13;100.00
39739;BME280;25422;48.286;8.484;2023-03-03T00:37:42;94141.22;;;-4.12;100.00
39739;BME280;25422;48.286;8.484;2023-03-03T00:40:32;94144.69;;;-4.13;100.00
39739;BME280;25422;48.286;8.484;2023-03-03T00:43:01;94153.25;;;-4.14;100.00
39739;BME280;25422;48.286;8.484;2023-03-03T00:45:43;94153.25;;;-4.14;100.00
39739;BME280;25422;48.286;8.484;2023-03-03T00:48:27;94150.53;;;-4.11;100.00
39739;BME280;25422;48.286;8.484;2023-03-03T00:50:57;94152.16;;;-4.10;100.00
39739;BME280;25422;48.286;8.484;2023-03-03T00:53:25;94152.25;;;-4.11;100.00
39739;BME280;25422;48.286;8.484;2023-03-03T00:55:52;94153.09;;;-4.11;100.00
39739;BME280;25422;48.286;8.484;2023-03-03T00:58:19;94155.66;;;-4.11;100.00
39739;BME280;25422;48.286;8.484;2023-03-03T01:00:50;94157.38;;;-4.11;100.00
39739;BME280;25422;48.286;8.484;2023-03-03T01:03:21;94155.06;;;-4.16;100.00
39739;BME280;25422;48.286;8.484;2023-03-03T01:05:47;94155.16;;;-4.17;100.00
39739;BME280;25422;48.286;8.484;2023-03-03T01:08:13;94157.03;;;-4.21;100.00
39739;BME280;25422;48.286;8.484;2023-03-03T01:10:43;94151.94;;;-4.21;100.00
39739;BME280;25422;48.286;8.484;2023-03-03T01:13:10;94148.47;;;-4.20;100.00
39739;BME280;25422;48.286;8.484;2023-03-03T01:15:37;94146.50;;;-4.15;100.00
39739;BME280;25422;48.286;8.484;2023-03-03T01:18:03;94151.63;;;-4.15;100.00
39739;BME280;25422;48.286;8.484;2023-03-03T01:20:29;94146.50;;;-4.15;100.00
39739;BME280;25422;48.286;8.484;2023-03-03T01:22:54;94139.91;;;-4.19;100.00
39739;BME280;25422;48.286;8.484;2023-03-03T01:25:20;94148.69;;;-4.25;100.00
39739;BME280;25422;48.286;8.484;2023-03-03T01:27:45;94145.16;;;-4.22;100.00
39739;BME280;25422;48.286;8.484;2023-03-03T01:30:11;94152.09;;;-4.24;100.00
39739;BME280;25422;48.286;8.484;2023-03-03T01:32:36;94149.53;;;-4.24;100.00
39739;BME280;25422;48.286;8.484;2023-03-03T01:35:02;94142.47;;;-4.19;100.00
39739;BME280;25422;48.286;8.484;2023-03-03T01:37:27;94137.91;;;-4.14;100.00
39739;BME280;25422;48.286;8.484;2023-03-03T01:39:53;94140.00;;;-4.20;100.00
39739;BME280;25422;48.286;8.484;2023-03-03T01:42:20;94128.22;;;-4.23;100.00
39739;BME280;25422;48.286;8.484;2023-03-03T01:44:46;94132.25;;;-4.19;100.00
39739;BME280;25422;48.286;8.484;2023-03-03T01:47:16;94125.72;;;-4.25;100.00
39739;BME280;25422;48.286;8.484;2023-03-03T01:50:04;94139.13;;;-4.37;100.00
39739;BME280;25422;48.286;8.484;2023-03-03T01:52:48;94136.59;;;-4.37;100.00
39739;BME280;25422;48.286;8.484;2023-03-03T01:55:19;94138.97;;;-4.50;100.00
39739;BME280;25422;48.286;8.484;2023-03-03T01:57:51;94136.06;;;-4.44;100.00
39739;BME280;25422;48.286;8.484;2023-03-03T02:00:19;94136.72;;;-4.56;100.00
39739;BME280;25422;48.286;8.484;2023-03-03T02:02:45;94122.88;;;-4.68;100.00
39739;BME280;25422;48.286;8.484;2023-03-03T02:05:12;94133.22;;;-4.71;100.00
39739;BME280;25422;48.286;8.484;2023-03-03T02:07:39;94131.75;;;-4.75;100.00
39739;BME280;25422;48.286;8.484;2023-03-03T02:10:11;94134.06;;;-4.70;100.00
39739;BME280;25422;48.286;8.484;2023-03-03T02:12:52;94133.31;;;-4.72;100.00
39739;BME280;25422;48.286;8.484;2023-03-03T02:17:56;94130.34;;;-4.81;100.00
39739;BME280;25422;48.286;8.484;2023-03-03T02:23:03;94119.69;;;-4.89;100.00
39739;BME280;25422;48.286;8.484;2023-03-03T02:28:26;94107.94;;;-5.09;100.00
39739;BME280;25422;48.286;8.484;2023-03-03T02:30:56;94114.09;;;-5.13;100.00
39739;BME280;25422;48.286;8.484;2023-03-03T02:33:23;94115.31;;;-5.20;100.00
39739;BME280;25422;48.286;8.484;2023-03-03T02:35:50;94112.75;;;-5.20;100.00
39739;BME280;25422;48.286;8.484;2023-03-03T02:41:15;94107.22;;;-5.29;100.00
39739;BME280;25422;48.286;8.484;2023-03-03T02:43:56;94111.63;;;-5.32;100.00
39739;BME280;25422;48.286;8.484;2023-03-03T02:46:24;94099.13;;;-5.37;100.00
39739;BME280;25422;48.286;8.484;2023-03-03T02:48:49;94101.88;;;-5.42;100.00
39739;BME280;25422;48.286;8.484;2023-03-03T02:51:15;94098.16;;;-5.34;100.00
39739;BME280;25422;48.286;8.484;2023-03-03T02:53:41;94095.22;;;-5.44;100.00
39739;BME280;25422;48.286;8.484;2023-03-03T02:56:06;94099.25;;;-5.40;100.00
39739;BME280;25422;48.286;8.484;2023-03-03T02:58:34;94100.72;;;-5.52;100.00
39739;BME280;25422;48.286;8.484;2023-03-03T03:01:01;94105.66;;;-5.49;100.00
39739;BME280;25422;48.286;8.484;2023-03-03T03:03:27;94106.09;;;-5.58;100.00
39739;BME280;25422;48.286;8.484;2023-03-03T03:05:53;94106.25;;;-5.61;100.00
39739;BME280;25422;48.286;8.484;2023-03-03T03:08:19;94105.81;;;-5.69;100.00
39739;BME280;25422;48.286;8.484;2023-03-03T03:10:45;94110.22;;;-5.73;100.00
39739;BME280;25422;48.286;8.484;2023-03-03T03:13:11;94108.19;;;-5.66;100.00
39739;BME280;25422;48.286;8.484;2023-03-03T03:15:37;94111.88;;;-5.72;100.00
39739;BME280;25422;48.286;8.484;2023-03-03T03:18:03;94122.13;;;-5.73;100.00
39739;BME280;25422;48.286;8.484;2023-03-03T03:20:29;94113.44;;;-5.69;100.00
39739;BME280;25422;48.286;8.484;2023-03-03T03:22:55;94113.44;;;-5.69;100.00
39739;BME280;25422;48.286;8.484;2023-03-03T03:25:20;94109.78;;;-5.64;100.00
39739;BME280;25422;48.286;8.484;2023-03-03T03:27:46;94111.56;;;-5.66;100.00
39739;BME280;25422;48.286;8.484;2023-03-03T03:30:12;94115.06;;;-5.68;100.00
39739;BME280;25422;48.286;8.484;2023-03-03T03:32:39;94117.41;;;-5.64;100.00
39739;BME280;25422;48.286;8.484;2023-03-03T03:35:05;94131.94;;;-5.66;100.00
39739;BME280;25422;48.286;8.484;2023-03-03T03:37:31;94125.41;;;-5.71;100.00
39739;BME280;25422;48.286;8.484;2023-03-03T03:39:57;94116.59;;;-5.64;100.00
39739;BME280;25422;48.286;8.484;2023-03-03T03:42:23;94126.66;;;-5.61;100.00
39739;BME280;25422;48.286;8.484;2023-03-03T03:44:49;94130.84;;;-5.60;100.00
39739;BME280;25422;48.286;8.484;2023-03-03T03:47:15;94128.00;;;-5.54;100.00
39739;BME280;25422;48.286;8.484;2023-03-03T03:49:41;94125.97;;;-5.47;100.00
39739;BME280;25422;48.286;8.484;2023-03-03T03:52:07;94129.19;;;-5.44;100.00
39739;BME280;25422;48.286;8.484;2023-03-03T03:54:33;94131.44;;;-5.37;100.00
39739;BME280;25422;48.286;8.484;2023-03-03T03:56:59;94130.25;;;-5.30;100.00
39739;BME280;25422;48.286;8.484;2023-03-03T03:59:25;94122.00;;;-5.18;100.00
39739;BME280;25422;48.286;8.484;2023-03-03T04:01:51;94128.59;;;-5.14;100.00
39739;BME280;25422;48.286;8.484;2023-03-03T04:04:19;94129.31;;;-5.12;100.00
39739;BME280;25422;48.286;8.484;2023-03-03T04:06:44;94127.91;;;-5.00;100.00
39739;BME280;25422;48.286;8.484;2023-03-03T04:09:10;94129.03;;;-5.05;100.00
39739;BME280;25422;48.286;8.484;2023-03-03T04:11:36;94121.22;;;-5.02;100.00
39739;BME280;25422;48.286;8.484;2023-03-03T04:14:03;94126.75;;;-4.94;100.00
39739;BME280;25422;48.286;8.484;2023-03-03T04:16:30;94117.22;;;-4.91;100.00
39739;BME280;25422;48.286;8.484;2023-03-03T04:18:55;94125.31;;;-4.82;100.00
39739;BME280;25422;48.286;8.484;2023-03-03T04:21:21;94128.47;;;-4.77;100.00
39739;BME280;25422;48.286;8.484;2023-03-03T04:23:49;94128.03;;;-4.69;100.00
39739;BME280;25422;48.286;8.484;2023-03-03T04:26:15;94141.19;;;-4.60;100.00
39739;BME280;25422;48.286;8.484;2023-03-03T04:28:42;94132.97;;;-4.49;100.00
39739;BME280;25422;48.286;8.484;2023-03-03T04:31:08;94132.22;;;-4.35;100.00
39739;BME280;25422;48.286;8.484;2023-03-03T04:33:34;94135.47;;;-4.31;100.00
39739;BME280;25422;48.286;8.484;2023-03-03T04:36:02;94138.16;;;-4.34;100.00
39739;BME280;25422;48.286;8.484;2023-03-03T04:38:28;94145.41;;;-4.27;100.00
39739;BME280;25422;48.286;8.484;2023-03-03T04:40:55;94136.44;;;-4.18;100.00
39739;BME280;25422;48.286;8.484;2023-03-03T04:43:22;94134.13;;;-4.22;100.00
39739;BME280;25422;48.286;8.484;2023-03-03T04:45:48;94131.25;;;-4.16;100.00
39739;BME280;25422;48.286;8.484;2023-03-03T04:48:14;94140.97;;;-4.07;100.00
39739;BME280;25422;48.286;8.484;2023-03-03T04:50:41;94129.03;;;-4.07;100.00
39739;BME280;25422;48.286;8.484;2023-03-03T04:53:06;94133.31;;;-4.07;100.00
39739;BME280;25422;48.286;8.484;2023-03-03T04:55:32;94129.13;;;-4.08;100.00
39739;BME280;25422;48.286;8.484;2023-03-03T04:57:57;94134.63;;;-4.00;100.00
39739;BME280;25422;48.286;8.484;2023-03-03T05:00:23;94130.91;;;-3.94;100.00
39739;BME280;25422;48.286;8.484;2023-03-03T05:02:49;94137.78;;;-3.95;100.00
39739;BME280;25422;48.286;8.484;2023-03-03T05:05:14;94133.13;;;-3.88;100.00
39739;BME280;25422;48.286;8.484;2023-03-03T05:07:40;94135.44;;;-3.83;100.00
39739;BME280;25422;48.286;8.484;2023-03-03T05:10:06;94141.56;;;-3.86;100.00
39739;BME280;25422;48.286;8.484;2023-03-03T05:12:32;94146.47;;;-3.83;100.00
39739;BME280;25422;48.286;8.484;2023-03-03T05:14:57;94148.81;;;-3.78;100.00
39739;BME280;25422;48.286;8.484;2023-03-03T05:17:22;94144.50;;;-3.78;100.00
39739;BME280;25422;48.286;8.484;2023-03-03T05:19:48;94145.25;;;-3.76;100.00
39739;BME280;25422;48.286;8.484;2023-03-03T05:22:13;94141.78;;;-3.75;100.00
39739;BME280;25422;48.286;8.484;2023-03-03T05:24:39;94145.56;;;-3.66;100.00
39739;BME280;25422;48.286;8.484;2023-03-03T05:27:04;94147.47;;;-3.69;100.00
39739;BME280;25422;48.286;8.484;2023-03-03T05:29:30;94153.34;;;-3.67;100.00
39739;BME280;25422;48.286;8.484;2023-03-03T05:31:56;94152.06;;;-3.60;100.00
39739;BME280;25422;48.286;8.484;2023-03-03T05:34:22;94155.22;;;-3.55;100.00
39739;BME280;25422;48.286;8.484;2023-03-03T05:36:47;94148.72;;;-3.61;100.00
39739;BME280;25422;48.286;8.484;2023-03-03T05:39:13;94149.44;;;-3.59;100.00
39739;BME280;25422;48.286;8.484;2023-03-03T05:41:38;94147.69;;;-3.58;100.00
39739;BME280;25422;48.286;8.484;2023-03-03T05:44:04;94149.34;;;-3.57;100.00
39739;BME280;25422;48.286;8.484;2023-03-03T05:46:29;94152.75;;;-3.57;100.00
39739;BME280;25422;48.286;8.484;2023-03-03T05:48:55;94144.81;;;-3.52;100.00
39739;BME280;25422;48.286;8.484;2023-03-03T05:51:20;94155.50;;;-3.45;100.00
39739;BME280;25422;48.286;8.484;2023-03-03T05:53:45;94149.41;;;-3.43;100.00
39739;BME280;25422;48.286;8.484;2023-03-03T05:56:11;94162.91;;;-3.41;100.00
39739;BME280;25422;48.286;8.484;2023-03-03T05:58:36;94156.09;;;-3.40;100.00
39739;BME280;25422;48.286;8.484;2023-03-03T06:01:01;94158.56;;;-3.39;100.00
39739;BME280;25422;48.286;8.484;2023-03-03T06:03:27;94156.28;;;-3.29;100.00
39739;BME280;25422;48.286;8.484;2023-03-03T06:05:52;94154.78;;;-3.17;100.00
39739;BME280;25422;48.286;8.484;2023-03-03T06:08:18;94164.34;;;-3.20;100.00
39739;BME280;25422;48.286;8.484;2023-03-03T06:10:43;94164.34;;;-3.20;100.00
39739;BME280;25422;48.286;8.484;2023-03-03T06:13:11;94164.28;;;-3.19;100.00
39739;BME280;25422;48.286;8.484;2023-03-03T06:15:37;94164.31;;;-3.05;100.00
39739;BME280;25422;48.286;8.484;2023-03-03T06:18:03;94173.75;;;-3.05;100.00
39739;BME280;25422;48.286;8.484;2023-03-03T06:20:28;94174.22;;;-2.98;100.00
39739;BME280;25422;48.286;8.484;2023-03-03T06:22:54;94170.72;;;-2.97;100.00
39739;BME280;25422;48.286;8.484;2023-03-03T06:25:19;94182.72;;;-2.98;100.00
39739;BME280;25422;48.286;8.484;2023-03-03T06:27:45;94191.47;;;-3.02;100.00
39739;BME280;25422;48.286;8.484;2023-03-03T06:30:10;94189.41;;;-2.95;100.00
39739;BME280;25422;48.286;8.484;2023-03-03T06:32:37;94190.88;;;-2.91;100.00
39739;BME280;25422;48.286;8.484;2023-03-03T06:35:03;94189.13;;;-2.91;100.00
39739;BME280;25422;48.286;8.484;2023-03-03T06:37:28;94193.53;;;-2.78;100.00
39739;BME280;25422;48.286;8.484;2023-03-03T06:39:54;94201.88;;;-2.75;100.00
39739;BME280;25422;48.286;8.484;2023-03-03T06:42:19;94198.31;;;-2.72;100.00
39739;BME280;25422;48.286;8.484;2023-03-03T06:44:45;94190.53;;;-2.71;100.00
39739;BME280;25422;48.286;8.484;2023-03-03T06:47:10;94202.81;;;-2.61;100.00
39739;BME280;25422;48.286;8.484;2023-03-03T06:49:36;94207.03;;;-2.60;100.00
39739;BME280;25422;48.286;8.484;2023-03-03T06:52:10;94201.69;;;-2.72;100.00
39739;BME280;25422;48.286;8.484;2023-03-03T06:54:36;94202.91;;;-2.63;100.00
39739;BME280;25422;48.286;8.484;2023-03-03T06:59:52;94203.91;;;-2.51;100.00
39739;BME280;25422;48.286;8.484;2023-03-03T07:02:19;94202.00;;;-2.47;100.00
39739;BME280;25422;48.286;8.484;2023-03-03T07:04:45;94207.59;;;-2.41;100.00
39739;BME280;25422;48.286;8.484;2023-03-03T07:07:24;94206.66;;;-2.25;100.00
39739;BME280;25422;48.286;8.484;2023-03-03T07:09:52;94211.63;;;-2.22;100.00
39739;BME280;25422;48.286;8.484;2023-03-03T07:12:21;94217.47;;;-2.20;100.00
39739;BME280;25422;48.286;8.484;2023-03-03T07:17:33;94222.66;;;-1.93;100.00
39739;BME280;25422;48.286;8.484;2023-03-03T07:20:00;94220.94;;;-1.92;100.00
39739;BME280;25422;48.286;8.484;2023-03-03T07:22:27;94222.59;;;-1.91;100.00
39739;BME280;25422;48.286;8.484;2023-03-03T07:24:54;94226.53;;;-1.85;100.00
39739;BME280;25422;48.286;8.484;2023-03-03T07:27:24;94231.00;;;-1.75;100.00
39739;BME280;25422;48.286;8.484;2023-03-03T07:29:52;94228.00;;;-1.81;100.00
39739;BME280;25422;48.286;8.484;2023-03-03T07:32:27;94226.31;;;-1.68;100.00
39739;BME280;25422;48.286;8.484;2023-03-03T07:34:55;94230.16;;;-1.75;100.00
39739;BME280;25422;48.286;8.484;2023-03-03T07:39:46;94237.09;;;-1.63;100.00
39739;BME280;25422;48.286;8.484;2023-03-03T07:42:25;94239.00;;;-1.52;100.00
39739;BME280;25422;48.286;8.484;2023-03-03T07:45:28;94244.41;;;-1.42;100.00
39739;BME280;25422;48.286;8.484;2023-03-03T07:50:39;94243.75;;;-1.31;100.00
39739;BME280;25422;48.286;8.484;2023-03-03T07:53:12;94249.38;;;-1.26;100.00
39739;BME280;25422;48.286;8.484;2023-03-03T07:55:39;94242.56;;;-1.13;100.00
39739;BME280;25422;48.286;8.484;2023-03-03T07:58:21;94255.84;;;-1.06;100.00
39739;BME280;25422;48.286;8.484;2023-03-03T08:01:23;94256.81;;;-1.22;100.00
39739;BME280;25422;48.286;8.484;2023-03-03T08:03:52;94262.53;;;-1.31;100.00
39739;BME280;25422;48.286;8.484;2023-03-03T08:11:48;94263.97;;;-1.27;100.00
39739;BME280;25422;48.286;8.484;2023-03-03T08:14:19;94255.56;;;-1.02;100.00
39739;BME280;25422;48.286;8.484;2023-03-03T08:16:46;94263.72;;;-0.95;100.00
39739;BME280;25422;48.286;8.484;2023-03-03T08:19:14;94261.38;;;-0.72;100.00
39739;BME280;25422;48.286;8.484;2023-03-03T08:21:41;94258.22;;;-0.63;100.00
39739;BME280;25422;48.286;8.484;2023-03-03T08:24:06;94274.88;;;-0.69;100.00
39739;BME280;25422;48.286;8.484;2023-03-03T08:26:32;94267.53;;;-0.75;100.00
39739;BME280;25422;48.286;8.484;2023-03-03T08:28:57;94274.44;;;-0.75;100.00
39739;BME280;25422;48.286;8.484;2023-03-03T08:31:23;94272.88;;;-0.78;100.00
39739;BME280;25422;48.286;8.484;2023-03-03T08:33:48;94268.88;;;-0.82;100.00
39739;BME280;25422;48.286;8.484;2023-03-03T08:36:13;94275.47;;;-0.78;100.00
39739;BME280;25422;48.286;8.484;2023-03-03T08:38:39;94274.88;;;-0.69;100.00
39739;BME280;25422;48.286;8.484;2023-03-03T08:41:04;94264.44;;;-0.53;100.00
39739;BME280;25422;48.286;8.484;2023-03-03T08:43:30;94267.41;;;-0.46;100.00
39739;BME280;25422;48.286;8.484;2023-03-03T08:45:58;94263.31;;;0.03;100.00
39739;BME280;25422;48.286;8.484;2023-03-03T08:48:25;94261.56;;;0.04;100.00
39739;BME280;25422;48.286;8.484;2023-03-03T08:50:51;94268.63;;;0.39;100.00
39739;BME280;25422;48.286;8.484;2023-03-03T08:53:18;94266.63;;;0.68;100.00
39739;BME280;25422;48.286;8.484;2023-03-03T08:55:44;94263.50;;;0.76;100.00
39739;BME280;25422;48.286;8.484;2023-03-03T08:58:10;94278.47;;;0.71;100.00
39739;BME280;25422;48.286;8.484;2023-03-03T09:00:35;94275.34;;;1.03;100.00
39739;BME280;25422;48.286;8.484;2023-03-03T09:03:01;94277.44;;;1.22;100.00
39739;BME280;25422;48.286;8.484;2023-03-03T09:05:27;94277.50;;;1.33;100.00
39739;BME280;25422;48.286;8.484;2023-03-03T09:07:53;94275.09;;;1.54;100.00
39739;BME280;25422;48.286;8.484;2023-03-03T09:10:23;94277.38;;;1.70;100.00
39739;BME280;25422;48.286;8.484;2023-03-03T09:12:52;94273.47;;;1.53;100.00
39739;BME280;25422;48.286;8.484;2023-03-03T09:15:29;94280.66;;;1.37;100.00
39739;BME280;25422;48.286;8.484;2023-03-03T09:18:14;94278.16;;;1.48;100.00
39739;BME280;25422;48.286;8.484;2023-03-03T09:20:44;94278.19;;;1.59;100.00
39739;BME280;25422;48.286;8.484;2023-03-03T09:23:28;94277.94;;;1.62;100.00
39739;BME280;25422;48.286;8.484;2023-03-03T09:25:55;94272.41;;;2.14;100.00
39739;BME280;25422;48.286;8.484;2023-03-03T09:28:25;94275.34;;;2.21;100.00
39739;BME280;25422;48.286;8.484;2023-03-03T09:30:52;94279.38;;;2.47;100.00
39739;BME280;25422;48.286;8.484;2023-03-03T09:36:18;94276.59;;;3.06;100.00
39739;BME280;25422;48.286;8.484;2023-03-03T09:38:46;94278.50;;;2.92;100.00
39739;BME280;25422;48.286;8.484;2023-03-03T09:44:27;94282.91;;;3.13;100.00
39739;BME280;25422;48.286;8.484;2023-03-03T09:50:08;94284.38;;;3.38;100.00
39739;BME280;25422;48.286;8.484;2023-03-03T09:52:44;94277.59;;;3.79;100.00
39739;BME280;25422;48.286;8.484;2023-03-03T09:55:35;94280.63;;;4.05;100.00
39739;BME280;25422;48.286;8.484;2023-03-03T10:00:49;94282.38;;;4.26;100.00
39739;BME280;25422;48.286;8.484;2023-03-03T10:12:28;94289.47;;;4.96;100.00
39739;BME280;25422;48.286;8.484;2023-03-03T10:15:15;94290.75;;;4.70;100.00
39739;BME280;25422;48.286;8.484;2023-03-03T10:17:51;94294.34;;;4.48;100.00
39739;BME280;25422;48.286;8.484;2023-03-03T10:22:59;94293.81;;;4.02;100.00
39739;BME280;25422;48.286;8.484;2023-03-03T10:25:44;94297.88;;;3.95;100.00
39739;BME280;25422;48.286;8.484;2023-03-03T10:31:35;94303.50;;;4.83;100.00
39739;BME280;25422;48.286;8.484;2023-03-03T10:42:24;94295.19;;;5.99;100.00
39739;BME280;25422;48.286;8.484;2023-03-03T10:45:05;94296.63;;;6.31;100.00
39739;BME280;25422;48.286;8.484;2023-03-03T10:47:45;94289.44;;;6.90;96.58
39739;BME280;25422;48.286;8.484;2023-03-03T10:50:25;94290.50;;;7.25;96.45
39739;BME280;25422;48.286;8.484;2023-03-03T10:53:07;94295.72;;;7.79;92.13
39739;BME280;25422;48.286;8.484;2023-03-03T10:56:02;94297.72;;;7.85;91.43
39739;BME280;25422;48.286;8.484;2023-03-03T10:58:58;94287.81;;;8.07;79.63
39739;BME280;25422;48.286;8.484;2023-03-03T11:01:46;94299.97;;;7.44;85.25
39739;BME280;25422;48.286;8.484;2023-03-03T11:04:30;94294.59;;;8.00;80.55
39739;BME280;25422;48.286;8.484;2023-03-03T11:07:20;94295.13;;;7.67;78.14
39739;BME280;25422;48.286;8.484;2023-03-03T11:12:40;94296.09;;;7.30;86.98
39739;BME280;25422;48.286;8.484;2023-03-03T11:20:41;94287.84;;;8.33;81.19
39739;BME280;25422;48.286;8.484;2023-03-03T11:23:28;94291.88;;;7.83;80.32
39739;BME280;25422;48.286;8.484;2023-03-03T11:26:38;94284.97;;;8.00;82.01
39739;BME280;25422;48.286;8.484;2023-03-03T11:29:29;94295.78;;;7.33;87.13
39739;BME280;25422;48.286;8.484;2023-03-03T11:37:28;94280.66;;;8.53;80.06
39739;BME280;25422;48.286;8.484;2023-03-03T11:40:06;94285.16;;;9.04;71.17
39739;BME280;25422;48.286;8.484;2023-03-03T11:45:18;94272.50;;;9.34;72.23
39739;BME280;25422;48.286;8.484;2023-03-03T11:50:25;94265.56;;;9.67;65.72
39739;BME280;25422;48.286;8.484;2023-03-03T11:55:31;94261.22;;;8.74;70.74
39739;BME280;25422;48.286;8.484;2023-03-03T11:58:07;94261.09;;;8.49;72.12
39739;BME280;25422;48.286;8.484;2023-03-03T12:05:56;94264.94;;;8.71;71.84
39739;BME280;25422;48.286;8.484;2023-03-03T12:08:32;94267.28;;;9.25;67.56
39739;BME280;25422;48.286;8.484;2023-03-03T12:11:07;94262.59;;;9.45;65.01
39739;BME280;25422;48.286;8.484;2023-03-03T12:14:29;94262.06;;;8.04;70.45
39739;BME280;25422;48.286;8.484;2023-03-03T12:19:38;94261.63;;;8.61;69.65
39739;BME280;25422;48.286;8.484;2023-03-03T12:25:28;94262.53;;;7.99;70.13
39739;BME280;25422;48.286;8.484;2023-03-03T12:31:03;94255.44;;;8.62;71.10
39739;BME280;25422;48.286;8.484;2023-03-03T12:36:21;94258.59;;;7.77;74.23
39739;BME280;25422;48.286;8.484;2023-03-03T12:38:55;94248.38;;;7.84;76.71
39739;BME280;25422;48.286;8.484;2023-03-03T12:44:21;94253.16;;;7.88;74.48
39739;BME280;25422;48.286;8.484;2023-03-03T12:47:04;94243.28;;;8.18;72.67
39739;BME280;25422;48.286;8.484;2023-03-03T12:52:35;94263.97;;;7.57;81.43
39739;BME280;25422;48.286;8.484;2023-03-03T12:57:52;94255.78;;;7.16;83.85
39739;BME280;25422;48.286;8.484;2023-03-03T13:05:58;94254.06;;;6.97;86.87
39739;BME280;25422;48.286;8.484;2023-03-03T13:14:09;94259.19;;;7.17;88.03
39739;BME280;25422;48.286;8.484;2023-03-03T13:16:42;94253.13;;;6.98;88.42
39739;BME280;25422;48.286;8.484;2023-03-03T13:19:34;94250.72;;;7.51;86.12
39739;BME280;25422;48.286;8.484;2023-03-03T13:22:28;94251.72;;;7.04;88.61
39739;BME280;25422;48.286;8.484;2023-03-03T13:27:34;94232.41;;;7.79;83.84
39739;BME280;25422;48.286;8.484;2023-03-03T13:30:19;94241.13;;;7.51;83.07
39739;BME280;25422;48.286;8.484;2023-03-03T13:32:54;94246.31;;;7.87;81.74
39739;BME280;25422;48.286;8.484;2023-03-03T13:35:39;94248.84;;;7.43;86.39
39739;BME280;25422;48.286;8.484;2023-03-03T13:38:12;94243.94;;;7.22;86.74
39739;BME280;25422;48.286;8.484;2023-03-03T13:40:42;94239.94;;;7.28;86.61
39739;BME280;25422;48.286;8.484;2023-03-03T13:43:17;94238.91;;;7.38;86.67
39739;BME280;25422;48.286;8.484;2023-03-03T13:46:11;94230.94;;;7.76;84.09
39739;BME280;25422;48.286;8.484;2023-03-03T13:51:41;94233.81;;;7.91;83.19
39739;BME280;25422;48.286;8.484;2023-03-03T14:03:14;94237.41;;;7.36;84.44
39739;BME280;25422;48.286;8.484;2023-03-03T14:05:56;94228.25;;;7.14;85.65
39739;BME280;25422;48.286;8.484;2023-03-03T14:11:36;94217.84;;;7.68;85.37
39739;BME280;25422;48.286;8.484;2023-03-03T14:14:38;94223.72;;;7.96;81.43
39739;BME280;25422;48.286;8.484;2023-03-03T14:17:31;94220.16;;;7.53;83.26
39739;BME280;25422;48.286;8.484;2023-03-03T14:22:46;94222.91;;;7.51;84.75
39739;BME280;25422;48.286;8.484;2023-03-03T14:25:16;94224.22;;;7.55;83.95
39739;BME280;25422;48.286;8.484;2023-03-03T14:30:36;94220.28;;;7.51;80.81
39739;BME280;25422;48.286;8.484;2023-03-03T14:35:36;94212.44;;;7.61;81.83
39739;BME280;25422;48.286;8.484;2023-03-03T14:38:11;94224.84;;;7.31;82.81
39739;BME280;25422;48.286;8.484;2023-03-03T14:40:39;94222.44;;;7.38;82.45
39739;BME280;25422;48.286;8.484;2023-03-03T14:45:55;94219.25;;;7.44;81.49
39739;BME280;25422;48.286;8.484;2023-03-03T14:48:23;94217.63;;;7.61;79.11
39739;BME280;25422;48.286;8.484;2023-03-03T14:50:51;94217.78;;;7.41;80.60
39739;BME280;25422;48.286;8.484;2023-03-03T14:55:48;94222.06;;;7.15;80.28
39739;BME280;25422;48.286;8.484;2023-03-03T15:01:34;94216.22;;;6.85;83.54
39739;BME280;25422;48.286;8.484;2023-03-03T15:04:09;94216.91;;;6.87;83.03
39739;BME280;25422;48.286;8.484;2023-03-03T15:06:49;94217.81;;;6.96;82.97
39739;BME280;25422;48.286;8.484;2023-03-03T15:09:23;94212.13;;;6.82;84.30
39739;BME280;25422;48.286;8.484;2023-03-03T15:11:54;94210.22;;;6.84;83.40
39739;BME280;25422;48.286;8.484;2023-03-03T15:19:51;94200.47;;;6.40;85.92
39739;BME280;25422;48.286;8.484;2023-03-03T15:25:14;94208.84;;;6.62;86.25
39739;BME280;25422;48.286;8.484;2023-03-03T15:27:48;94219.00;;;6.46;86.16
39739;BME280;25422;48.286;8.484;2023-03-03T15:30:26;94210.13;;;6.48;86.35
39739;BME280;25422;48.286;8.484;2023-03-03T15:33:28;94217.50;;;6.53;85.67
39739;BME280;25422;48.286;8.484;2023-03-03T15:36:16;94216.31;;;6.47;85.18
39739;BME280;25422;48.286;8.484;2023-03-03T15:41:37;94214.91;;;6.53;83.90
39739;BME280;25422;48.286;8.484;2023-03-03T15:52:19;94221.31;;;6.21;87.07
39739;BME280;25422;48.286;8.484;2023-03-03T16:00:22;94218.34;;;6.06;89.17
39739;BME280;25422;48.286;8.484;2023-03-03T16:02:51;94216.69;;;5.95;89.05
39739;BME280;25422;48.286;8.484;2023-03-03T16:05:28;94225.31;;;5.86;89.87
39739;BME280;25422;48.286;8.484;2023-03-03T16:13:20;94229.59;;;5.67;93.89
39739;BME280;25422;48.286;8.484;2023-03-03T16:24:10;94242.84;;;5.25;97.46
39739;BME280;25422;48.286;8.484;2023-03-03T16:27:15;94245.84;;;5.20;97.86
39739;BME280;25422;48.286;8.484;2023-03-03T16:32:47;94250.56;;;4.96;99.85